createdAt,value
2023-05-05T00:01:02.315Z,78.10
2023-05-05T00:03:29.673Z,78.00
2023-05-05T00:05:58.958Z,78.10
2023-05-05T00:08:27.895Z,78.00
2023-05-05T00:10:56.066Z,78.00
2023-05-05T00:13:23.478Z,78.10
2023-05-05T00:15:52.910Z,78.00
2023-05-05T00:18:20.673Z,78.00
2023-05-05T00:20:48.261Z,77.70
2023-05-05T00:23:16.154Z,77.90
2023-05-05T00:25:43.073Z,78.00
2023-05-05T00:28:10.445Z,78.00
2023-05-05T00:30:39.318Z,77.90
2023-05-05T00:33:08.394Z,78.00
2023-05-05T00:35:35.291Z,78.10
2023-05-05T00:38:03.104Z,78.30
2023-05-05T00:40:30.627Z,78.10
2023-05-05T00:42:59.768Z,78.20
2023-05-05T00:45:26.983Z,78.20
2023-05-05T00:48:01.385Z,78.40
2023-05-05T00:50:30.315Z,78.00
2023-05-05T00:53:01.115Z,78.10
2023-05-05T00:55:29.920Z,78.30
2023-05-05T00:58:02.192Z,78.00
2023-05-05T01:00:30.130Z,76.30
2023-05-05T01:02:57.416Z,77.70
2023-05-05T01:05:27.083Z,77.30
2023-05-05T01:08:23.359Z,77.90
2023-05-05T01:10:57.550Z,77.20
2023-05-05T01:14:00.229Z,77.50
2023-05-05T01:16:31.032Z,77.30
2023-05-05T01:19:12.662Z,77.30
2023-05-05T01:21:52.101Z,77.10
2023-05-05T01:24:49.763Z,77.10
2023-05-05T01:27:43.009Z,77.10
2023-05-05T01:30:15.505Z,77.00
2023-05-05T01:32:52.125Z,77.00
2023-05-05T01:35:27.278Z,76.70
2023-05-05T01:38:16.328Z,76.90
2023-05-05T01:40:48.278Z,77.00
2023-05-05T01:43:18.980Z,77.30
2023-05-05T01:45:47.721Z,76.90
2023-05-05T01:48:18.481Z,76.40
2023-05-05T01:50:48.361Z,76.30
2023-05-05T01:53:17.829Z,76.50
2023-05-05T01:55:46.947Z,77.20
2023-05-05T01:58:16.253Z,76.40
2023-05-05T02:00:44.387Z,76.90
2023-05-05T02:03:14.901Z,76.70
2023-05-05T02:05:43.784Z,76.80
2023-05-05T02:08:11.540Z,77.00
2023-05-05T02:10:43.672Z,76.90
2023-05-05T02:13:13.211Z,77.00
2023-05-05T02:15:41.920Z,77.30
2023-05-05T02:18:09.988Z,76.80
2023-05-05T02:20:39.746Z,77.10
2023-05-05T02:23:08.058Z,77.30
2023-05-05T02:25:42.082Z,77.10
2023-05-05T02:28:17.233Z,76.90
2023-05-05T02:30:48.632Z,76.70
2023-05-05T02:33:18.422Z,76.60
2023-05-05T02:35:50.013Z,76.50
2023-05-05T02:38:18.753Z,76.60
2023-05-05T02:40:49.446Z,76.40
2023-05-05T02:43:22.080Z,76.50
2023-05-05T02:45:52.471Z,76.60
2023-05-05T02:48:19.420Z,76.40
2023-05-05T02:50:46.262Z,76.40
2023-05-05T02:53:13.429Z,76.60
2023-05-05T02:55:46.863Z,76.40
2023-05-05T02:58:34.737Z,76.90
2023-05-05T03:01:04.623Z,76.50
2023-05-05T03:03:41.101Z,76.10
2023-05-05T03:06:16.524Z,76.20
2023-05-05T03:08:53.935Z,76.00
2023-05-05T03:11:29.376Z,76.30
2023-05-05T03:14:13.898Z,75.70
2023-05-05T03:16:42.634Z,75.70
2023-05-05T03:19:12.465Z,75.70
2023-05-05T03:21:40.454Z,75.80
2023-05-05T03:24:18.118Z,76.30
2023-05-05T03:26:47.835Z,76.60
2023-05-05T03:29:15.833Z,76.40
2023-05-05T03:31:43.003Z,76.50
2023-05-05T03:34:09.894Z,76.20
2023-05-05T03:36:36.957Z,75.90
2023-05-05T03:39:03.899Z,75.60
2023-05-05T03:41:30.841Z,75.90
2023-05-05T03:43:57.745Z,76.20
2023-05-05T03:46:24.712Z,75.70
2023-05-05T03:48:51.802Z,75.70
2023-05-05T03:51:18.798Z,75.50
2023-05-05T03:53:45.770Z,75.60
2023-05-05T03:56:12.741Z,75.80
2023-05-05T03:58:39.632Z,75.50
2023-05-05T04:01:07.111Z,75.70
2023-05-05T04:03:34.091Z,76.00
2023-05-05T04:06:01.562Z,75.20
2023-05-05T04:08:28.412Z,75.00
2023-05-05T04:10:55.386Z,75.00
2023-05-05T04:13:22.234Z,75.80
2023-05-05T04:15:49.163Z,75.40
2023-05-05T04:18:16.201Z,75.70
2023-05-05T04:20:43.265Z,75.70
2023-05-05T04:23:10.160Z,76.10
2023-05-05T04:25:37.186Z,75.90
2023-05-05T04:28:04.223Z,76.10
2023-05-05T04:30:31.176Z,76.20
2023-05-05T04:32:58.236Z,76.00
2023-05-05T04:35:25.214Z,76.10
2023-05-05T04:37:53.533Z,76.00
2023-05-05T04:40:20.543Z,75.60
2023-05-05T04:42:48.980Z,75.90
2023-05-05T04:45:15.971Z,75.80
2023-05-05T04:47:44.488Z,75.50
2023-05-05T04:50:11.599Z,75.60
2023-05-05T04:52:38.679Z,75.60
2023-05-05T04:55:06.239Z,75.50
2023-05-05T04:57:33.132Z,75.70
2023-05-05T05:00:01.687Z,75.60
2023-05-05T05:02:29.629Z,75.50
2023-05-05T05:04:56.579Z,75.40
2023-05-05T05:07:23.914Z,75.30
2023-05-05T05:09:50.754Z,75.10
2023-05-05T05:12:17.697Z,74.80
2023-05-05T05:14:44.715Z,74.60
2023-05-05T05:17:11.629Z,74.40
2023-05-05T05:19:39.245Z,74.40
2023-05-05T05:22:08.190Z,74.00
2023-05-05T05:24:35.261Z,73.70
2023-05-05T05:27:02.837Z,73.70
2023-05-05T05:29:29.731Z,73.40
2023-05-05T05:31:56.700Z,73.50
2023-05-05T05:34:23.915Z,73.70
2023-05-05T05:36:50.940Z,73.30
2023-05-05T05:39:17.829Z,73.20
2023-05-05T05:41:44.762Z,73.20
2023-05-05T05:44:11.617Z,73.10
2023-05-05T05:46:38.524Z,72.90
2023-05-05T05:49:06.897Z,72.80
2023-05-05T05:51:34.051Z,72.80
2023-05-05T05:54:01.040Z,72.60
2023-05-05T05:56:29.015Z,72.50
2023-05-05T05:58:56.097Z,72.40
2023-05-05T06:01:23.737Z,72.30
2023-05-05T06:03:51.164Z,72.20
2023-05-05T06:06:19.171Z,72.20
2023-05-05T06:08:46.497Z,72.10
2023-05-05T06:11:15.925Z,72.00
2023-05-05T06:13:42.822Z,71.90
2023-05-05T06:16:09.736Z,71.70
2023-05-05T06:18:36.700Z,71.80
2023-05-05T06:21:06.008Z,71.90
2023-05-05T06:23:33.019Z,71.80
2023-05-05T06:26:00.100Z,71.80
2023-05-05T06:28:27.358Z,71.70
2023-05-05T06:30:54.243Z,71.80
2023-05-05T06:33:22.209Z,72.10
2023-05-05T06:35:49.741Z,72.40
2023-05-05T06:38:16.637Z,72.30
2023-05-05T06:40:43.526Z,72.00
2023-05-05T06:43:10.538Z,72.20
2023-05-05T06:45:37.420Z,72.20
2023-05-05T06:48:04.546Z,72.30
2023-05-05T06:50:31.479Z,72.40
2023-05-05T06:52:58.409Z,72.00
2023-05-05T06:55:25.557Z,72.30
2023-05-05T06:57:52.655Z,72.40
2023-05-05T07:00:22.395Z,72.20
2023-05-05T07:02:49.346Z,72.50
2023-05-05T07:05:16.510Z,72.40
2023-05-05T07:07:56.695Z,72.60
2023-05-05T07:10:24.594Z,72.60
2023-05-05T07:12:52.722Z,72.60
2023-05-05T07:15:28.745Z,72.80
2023-05-05T07:17:56.710Z,72.80
2023-05-05T07:20:24.328Z,73.10
2023-05-05T07:22:51.466Z,73.00
2023-05-05T07:25:19.634Z,72.70
2023-05-05T07:27:47.122Z,72.40
2023-05-05T07:30:18.115Z,72.50
2023-05-05T07:32:46.970Z,72.50
2023-05-05T07:35:13.990Z,72.60
2023-05-05T07:37:41.136Z,72.90
2023-05-05T07:40:08.935Z,73.00
2023-05-05T07:42:36.060Z,73.10
2023-05-05T07:45:03.417Z,73.10
2023-05-05T07:47:30.466Z,72.90
2023-05-05T07:49:57.802Z,73.30
2023-05-05T07:52:37.087Z,73.40
2023-05-05T07:55:11.066Z,73.70
2023-05-05T07:57:38.426Z,74.10
2023-05-05T08:00:06.253Z,74.00
2023-05-05T08:02:33.401Z,73.90
2023-05-05T08:05:02.867Z,73.80
2023-05-05T08:07:29.775Z,73.50
2023-05-05T08:09:57.566Z,73.90
2023-05-05T08:12:24.482Z,73.70
2023-05-05T08:14:52.584Z,74.00
2023-05-05T08:17:20.493Z,73.80
2023-05-05T08:19:47.499Z,73.40
2023-05-05T08:22:14.366Z,73.50
2023-05-05T08:24:41.334Z,73.30
2023-05-05T08:27:08.161Z,73.20
2023-05-05T08:29:35.055Z,73.30
2023-05-05T08:32:03.041Z,73.50
2023-05-05T08:34:29.992Z,73.40
2023-05-05T08:36:56.966Z,73.30
2023-05-05T08:39:23.886Z,73.30
2023-05-05T08:41:50.808Z,73.30
2023-05-05T08:44:17.935Z,73.30
2023-05-05T08:46:45.186Z,73.90
2023-05-05T08:49:17.891Z,73.20
2023-05-05T08:51:46.776Z,73.00
2023-05-05T08:54:18.284Z,72.90
2023-05-05T08:56:47.186Z,72.70
2023-05-05T08:59:15.767Z,72.50
2023-05-05T09:01:45.312Z,72.10
2023-05-05T09:04:12.174Z,72.40
2023-05-05T09:06:39.184Z,72.20
2023-05-05T09:09:07.086Z,72.00
2023-05-05T09:11:35.488Z,72.00
2023-05-05T09:14:02.907Z,72.10
2023-05-05T09:16:31.275Z,72.20
2023-05-05T09:19:05.074Z,71.80
2023-05-05T09:21:33.130Z,70.90
2023-05-05T09:24:09.096Z,70.00
2023-05-05T09:26:43.796Z,70.00
2023-05-05T09:29:17.372Z,69.80
2023-05-05T09:31:44.443Z,70.50
2023-05-05T09:34:16.049Z,71.10
2023-05-05T09:36:49.267Z,71.00
2023-05-05T09:39:20.749Z,71.00
2023-05-05T09:41:47.770Z,71.10
2023-05-05T09:44:16.219Z,71.10
2023-05-05T09:46:53.287Z,71.10
2023-05-05T09:49:26.906Z,71.20
2023-05-05T09:51:54.951Z,71.20
2023-05-05T09:54:23.364Z,71.30
2023-05-05T09:56:51.320Z,71.50
2023-05-05T09:59:19.332Z,71.60
2023-05-05T10:01:46.732Z,71.60
2023-05-05T10:04:28.882Z,71.90
2023-05-05T10:06:58.477Z,72.10
2023-05-05T10:09:26.414Z,72.10
2023-05-05T10:11:53.932Z,72.20
2023-05-05T10:14:25.823Z,72.40
2023-05-05T10:16:54.768Z,72.40
2023-05-05T10:19:24.248Z,70.60
2023-05-05T10:21:59.664Z,70.60
2023-05-05T10:24:32.634Z,70.00
2023-05-05T10:27:03.342Z,70.30
2023-05-05T10:29:52.400Z,70.30
2023-05-05T10:35:03.738Z,70.70
2023-05-05T10:37:31.042Z,70.60
2023-05-05T10:39:58.827Z,70.40
2023-05-05T10:42:27.831Z,70.50
2023-05-05T10:44:54.997Z,70.50
2023-05-05T10:47:23.785Z,70.50
2023-05-05T10:50:06.712Z,70.50
2023-05-05T10:52:56.406Z,70.50
2023-05-05T10:56:01.999Z,70.50
2023-05-05T10:58:46.879Z,70.50
2023-05-05T11:01:35.251Z,70.40
2023-05-05T11:04:23.860Z,70.40
2023-05-05T11:07:11.789Z,70.50
2023-05-05T11:09:55.762Z,70.50
2023-05-05T11:12:22.880Z,70.60
2023-05-05T11:15:28.108Z,70.60
2023-05-05T11:17:59.129Z,70.60
2023-05-05T11:20:42.336Z,70.60
2023-05-05T11:23:09.217Z,70.60
2023-05-05T11:25:44.618Z,70.60
2023-05-05T11:28:21.543Z,70.60
2023-05-05T11:31:00.182Z,70.60
2023-05-05T11:33:39.660Z,70.70
2023-05-05T11:36:11.651Z,70.70
2023-05-05T11:38:57.383Z,70.70
2023-05-05T11:41:39.728Z,70.70
2023-05-05T11:44:17.284Z,70.70
2023-05-05T11:46:53.238Z,70.70
2023-05-05T11:49:34.272Z,70.80
2023-05-05T11:52:02.295Z,70.80
2023-05-05T11:54:33.257Z,70.80
2023-05-05T11:57:05.185Z,71.40
2023-05-05T11:59:32.535Z,70.80
2023-05-05T12:02:00.005Z,71.10
2023-05-05T12:04:26.926Z,70.80
2023-05-05T12:06:55.519Z,70.80
2023-05-05T12:09:23.409Z,70.80
2023-05-05T12:11:52.409Z,70.80
2023-05-05T12:14:19.784Z,70.80
2023-05-05T12:17:09.146Z,70.80
2023-05-05T12:19:36.313Z,70.80
2023-05-05T12:22:06.114Z,70.80
2023-05-05T12:24:33.594Z,70.80
2023-05-05T12:27:10.832Z,70.80
2023-05-05T12:29:38.108Z,70.80
2023-05-05T12:32:05.746Z,70.80
2023-05-05T12:34:32.966Z,70.80
2023-05-05T12:37:00.147Z,70.80
2023-05-05T12:39:36.699Z,70.80
2023-05-05T12:42:06.849Z,70.90
2023-05-05T12:44:37.801Z,70.80
2023-05-05T12:47:05.170Z,70.80
2023-05-05T12:49:34.704Z,70.90
2023-05-05T12:52:01.672Z,70.90
2023-05-05T12:54:31.445Z,70.90
2023-05-05T12:56:58.947Z,70.90
2023-05-05T12:59:25.964Z,70.90
2023-05-05T13:01:54.615Z,70.90
2023-05-05T13:04:27.557Z,70.90
2023-05-05T13:07:11.958Z,70.90
2023-05-05T13:09:39.254Z,71.00
2023-05-05T13:12:08.555Z,71.00
2023-05-05T13:14:36.549Z,71.00
2023-05-05T13:17:03.880Z,71.10
2023-05-05T13:19:32.212Z,71.80
2023-05-05T13:21:59.937Z,71.30
2023-05-05T13:24:42.062Z,71.90
2023-05-05T13:27:14.357Z,71.40
2023-05-05T13:29:42.655Z,71.30
2023-05-05T13:32:09.734Z,71.30
2023-05-05T13:34:37.356Z,71.40
2023-05-05T13:37:04.255Z,71.40
2023-05-05T13:39:31.308Z,71.40
2023-05-05T13:41:58.189Z,71.40
2023-05-05T13:44:25.264Z,71.50
2023-05-05T13:46:52.212Z,71.50
2023-05-05T13:49:20.189Z,71.60
2023-05-05T13:51:47.356Z,71.60
2023-05-05T13:54:14.579Z,71.70
2023-05-05T13:56:41.509Z,71.60
2023-05-05T13:59:08.498Z,71.70
2023-05-05T14:01:35.611Z,71.70
2023-05-05T14:04:05.395Z,71.70
2023-05-05T14:06:32.745Z,71.80
2023-05-05T14:08:59.731Z,71.80
2023-05-05T14:11:26.740Z,71.90
2023-05-05T14:13:54.203Z,71.90
2023-05-05T14:16:21.193Z,71.80
2023-05-05T14:18:48.131Z,71.90
2023-05-05T14:21:15.207Z,71.90
2023-05-05T14:23:43.687Z,72.00
2023-05-05T14:26:10.619Z,72.00
2023-05-05T14:28:37.552Z,72.00
2023-05-05T14:31:07.318Z,72.10
2023-05-05T14:33:34.200Z,71.80
2023-05-05T14:36:01.112Z,71.50
2023-05-05T14:38:28.109Z,71.30
2023-05-05T14:40:55.054Z,71.10
2023-05-05T14:43:22.013Z,71.00
2023-05-05T14:45:48.945Z,71.00
2023-05-05T14:48:16.769Z,71.00
2023-05-05T14:50:46.324Z,71.00
2023-05-05T14:53:13.261Z,70.90
2023-05-05T14:55:40.149Z,71.00
2023-05-05T14:58:07.138Z,71.00
2023-05-05T15:00:34.087Z,71.20
2023-05-05T15:03:01.266Z,71.20
2023-05-05T15:05:28.241Z,71.10
2023-05-05T15:07:55.239Z,71.10
2023-05-05T15:10:22.283Z,71.10
2023-05-05T15:12:49.376Z,71.20
2023-05-05T15:15:16.344Z,71.20
2023-05-05T15:17:44.318Z,71.20
2023-05-05T15:20:11.791Z,71.20
2023-05-05T15:22:38.848Z,71.30
2023-05-05T15:25:09.580Z,71.20
2023-05-05T15:27:37.994Z,71.30
2023-05-05T15:30:06.023Z,71.30
2023-05-05T15:32:33.405Z,71.30
2023-05-05T15:35:00.585Z,71.30
2023-05-05T15:37:29.027Z,71.30
2023-05-05T15:39:56.984Z,71.30
2023-05-05T15:42:26.188Z,71.30
2023-05-05T15:44:53.088Z,71.40
2023-05-05T15:47:20.005Z,71.40
2023-05-05T15:49:46.910Z,71.40
2023-05-05T15:52:14.077Z,71.50
2023-05-05T15:54:42.375Z,71.60
2023-05-05T15:57:09.880Z,71.70
2023-05-05T15:59:38.172Z,71.80
2023-05-05T16:02:05.135Z,71.90
2023-05-05T16:04:32.126Z,71.90
2023-05-05T16:06:59.374Z,71.90
2023-05-05T16:09:26.295Z,72.00
2023-05-05T16:11:54.355Z,72.00
2023-05-05T16:14:21.228Z,72.00
2023-05-05T16:16:48.232Z,72.00
2023-05-05T16:19:15.157Z,72.10
2023-05-05T16:21:44.934Z,72.10
2023-05-05T16:24:16.125Z,72.10
2023-05-05T16:26:44.619Z,72.10
2023-05-05T16:29:12.349Z,72.20
2023-05-05T16:31:39.913Z,72.20
2023-05-05T16:34:07.153Z,72.30
2023-05-05T16:36:34.033Z,72.30
2023-05-05T16:39:01.013Z,72.40
2023-05-05T16:41:27.974Z,72.40
2023-05-05T16:43:56.409Z,72.40
2023-05-05T16:46:23.353Z,72.40
2023-05-05T16:48:50.677Z,72.40
2023-05-05T16:51:17.692Z,72.50
2023-05-05T16:53:44.596Z,72.50
2023-05-05T16:56:12.913Z,72.60
2023-05-05T16:58:40.238Z,72.50
2023-05-05T17:01:07.253Z,72.60
2023-05-05T17:03:34.104Z,72.60
2023-05-05T17:06:01.005Z,72.60
2023-05-05T17:08:27.900Z,72.60
2023-05-05T17:10:54.756Z,72.70
2023-05-05T17:13:23.112Z,72.70
2023-05-05T17:15:50.233Z,72.80
2023-05-05T17:18:20.092Z,72.80
2023-05-05T17:20:47.030Z,72.80
2023-05-05T17:23:13.867Z,72.90
2023-05-05T17:25:40.742Z,72.90
2023-05-05T17:28:07.711Z,72.90
2023-05-05T17:30:34.591Z,73.00
2023-05-05T17:33:01.478Z,73.00
2023-05-05T17:35:28.562Z,73.00
2023-05-05T17:37:55.468Z,73.00
2023-05-05T17:40:22.484Z,73.10
2023-05-05T17:42:52.987Z,73.10
2023-05-05T17:45:19.860Z,73.10
2023-05-05T17:47:46.706Z,73.00
2023-05-05T17:50:13.700Z,73.20
2023-05-05T17:52:42.191Z,73.10
2023-05-05T17:55:09.717Z,73.20
2023-05-05T17:57:36.775Z,73.20
2023-05-05T18:00:07.168Z,73.20
2023-05-05T18:02:37.249Z,73.20
2023-05-05T18:05:04.885Z,73.20
2023-05-05T18:07:34.045Z,73.30
2023-05-05T18:10:01.001Z,73.30
2023-05-05T18:12:28.375Z,73.30
2023-05-05T18:14:55.287Z,73.30
2023-05-05T18:17:22.303Z,73.20
2023-05-05T18:19:49.643Z,73.30
2023-05-05T18:22:17.006Z,73.30
2023-05-05T18:24:43.934Z,73.30
2023-05-05T18:27:10.986Z,73.30
2023-05-05T18:29:37.999Z,74.10
2023-05-05T18:32:07.760Z,73.40
2023-05-05T18:34:36.106Z,73.50
2023-05-05T18:37:03.615Z,73.50
2023-05-05T18:39:30.535Z,73.50
2023-05-05T18:41:57.481Z,73.50
2023-05-05T18:44:24.386Z,73.50
2023-05-05T18:46:51.656Z,73.50
2023-05-05T18:49:21.482Z,73.50
2023-05-05T18:51:48.357Z,73.50
2023-05-05T18:54:15.215Z,73.50
2023-05-05T18:56:42.390Z,73.50
2023-05-05T18:59:10.828Z,73.50
2023-05-05T19:01:37.704Z,73.60
2023-05-05T19:04:08.486Z,73.60
2023-05-05T19:06:41.479Z,73.60
2023-05-05T19:09:08.693Z,73.70
2023-05-05T19:11:43.596Z,73.70
2023-05-05T19:14:12.163Z,73.70
2023-05-05T19:16:47.580Z,73.70
2023-05-05T19:19:14.542Z,73.70
2023-05-05T19:21:43.957Z,73.70
2023-05-05T19:24:13.738Z,73.70
2023-05-05T19:26:44.582Z,73.70
2023-05-05T19:29:14.377Z,73.80
2023-05-05T19:31:51.378Z,73.80
2023-05-05T19:34:24.553Z,73.80
2023-05-05T19:36:55.029Z,73.50
2023-05-05T19:39:24.751Z,73.40
2023-05-05T19:41:54.245Z,73.20
2023-05-05T19:44:36.799Z,73.20
2023-05-05T19:47:05.097Z,73.10
2023-05-05T19:49:32.106Z,73.00
2023-05-05T19:51:59.131Z,73.00
2023-05-05T19:54:27.997Z,72.80
2023-05-05T19:57:19.276Z,73.00
2023-05-05T19:59:54.906Z,73.10
2023-05-05T20:02:26.770Z,73.30
2023-05-05T20:04:54.167Z,73.10
2023-05-05T20:10:37.878Z,73.00
2023-05-05T20:13:06.777Z,72.80
2023-05-05T20:15:36.437Z,72.60
2023-05-05T20:18:09.411Z,72.60
2023-05-05T20:20:39.876Z,72.50
2023-05-05T20:26:22.804Z,72.50
2023-05-05T20:28:52.322Z,72.40
2023-05-05T20:31:19.361Z,72.40
2023-05-05T20:33:46.326Z,72.30
2023-05-05T20:36:13.348Z,72.30
2023-05-05T20:38:40.313Z,72.30
2023-05-05T20:41:07.257Z,72.20
2023-05-05T20:43:39.367Z,72.20
2023-05-05T20:46:12.902Z,72.10
2023-05-05T20:48:42.446Z,72.20
2023-05-05T20:51:10.092Z,72.20
2023-05-05T20:53:36.946Z,72.10
2023-05-05T20:56:05.719Z,72.20
2023-05-05T20:58:33.368Z,72.00
2023-05-05T21:01:00.701Z,72.00
2023-05-05T21:03:27.655Z,72.00
2023-05-05T21:05:56.252Z,72.00
2023-05-05T21:08:23.124Z,68.80
2023-05-05T21:10:52.178Z,66.50
2023-05-05T21:13:19.210Z,65.80
2023-05-05T21:15:46.181Z,65.40
2023-05-05T21:18:13.190Z,65.30
2023-05-05T21:20:42.595Z,65.90
2023-05-05T21:23:09.482Z,65.90
2023-05-05T21:25:37.585Z,66.00
2023-05-05T21:28:04.630Z,66.00
2023-05-05T21:30:31.646Z,65.80
2023-05-05T21:33:33.170Z,66.70
2023-05-05T21:36:03.399Z,67.00
2023-05-05T21:38:30.449Z,67.50
2023-05-05T21:40:59.115Z,67.30
2023-05-05T21:43:29.113Z,67.90
2023-05-05T21:46:03.417Z,67.60
2023-05-05T21:48:34.767Z,68.00
2023-05-05T21:51:01.887Z,68.10
2023-05-05T21:53:31.208Z,69.30
2023-05-05T21:55:58.246Z,68.50
2023-05-05T21:58:25.494Z,68.60
2023-05-05T22:00:52.653Z,68.60
2023-05-05T22:03:20.102Z,68.80
2023-05-05T22:05:47.257Z,69.10
2023-05-05T22:08:14.121Z,69.60
2023-05-05T22:10:44.868Z,69.50
2023-05-05T22:13:11.860Z,69.60
2023-05-05T22:15:46.137Z,69.60
2023-05-05T22:18:14.923Z,69.70
2023-05-05T22:20:42.242Z,69.70
2023-05-05T22:23:09.205Z,69.80
2023-05-05T22:25:36.191Z,70.00
2023-05-05T22:28:03.150Z,70.20
2023-05-05T22:30:30.120Z,70.20
2023-05-05T22:32:58.756Z,70.30
2023-05-05T22:35:25.813Z,70.40
2023-05-05T22:37:52.698Z,70.60
2023-05-05T22:40:19.901Z,70.60
2023-05-05T22:42:46.916Z,70.60
2023-05-05T22:45:14.143Z,70.80
2023-05-05T22:47:41.208Z,71.10
2023-05-05T22:50:09.042Z,71.00
2023-05-05T22:52:37.369Z,71.10
2023-05-05T22:55:04.536Z,71.10
2023-05-05T22:57:31.478Z,71.20
2023-05-05T22:59:58.374Z,71.30
2023-05-05T23:02:26.706Z,71.50
2023-05-05T23:04:53.810Z,71.60
2023-05-05T23:07:21.008Z,71.70
2023-05-05T23:09:48.787Z,71.80
2023-05-05T23:12:17.042Z,71.80
2023-05-05T23:14:44.970Z,71.90
2023-05-05T23:17:12.509Z,71.90
2023-05-05T23:19:39.446Z,72.00
2023-05-05T23:22:12.522Z,72.20
2023-05-05T23:24:42.439Z,72.30
2023-05-05T23:27:13.349Z,72.40
2023-05-05T23:29:40.236Z,72.40
2023-05-05T23:32:07.107Z,72.40
2023-05-05T23:34:34.002Z,72.40
2023-05-05T23:37:00.882Z,72.50
2023-05-05T23:39:27.913Z,72.60
2023-05-05T23:41:57.026Z,72.70
2023-05-05T23:44:26.263Z,72.40
2023-05-05T23:46:53.922Z,72.40
2023-05-05T23:49:20.756Z,72.30
2023-05-05T23:51:48.731Z,72.30
2023-05-05T23:54:16.728Z,72.20
2023-05-05T23:56:43.801Z,72.30
2023-05-05T23:59:10.652Z,72.40
